createdAt,value
2022-10-30T00:01:24.324Z,31.13
2022-10-30T00:03:51.339Z,29.27
2022-10-30T00:06:19.504Z,27.10
2022-10-30T00:08:46.409Z,33.87
2022-10-30T00:11:14.064Z,32.33
2022-10-30T00:13:45.550Z,26.83
2022-10-30T00:16:12.530Z,31.30
2022-10-30T00:18:42.131Z,30.07
2022-10-30T00:21:12.967Z,25.60
2022-10-30T00:23:45.175Z,22.83
2022-10-30T00:26:12.204Z,31.27
2022-10-30T00:28:39.085Z,26.00
2022-10-30T00:31:06.662Z,29.23
2022-10-30T00:33:33.815Z,29.13
2022-10-30T00:36:01.025Z,26.80
2022-10-30T00:38:28.208Z,29.97
2022-10-30T00:40:55.269Z,34.60
2022-10-30T00:43:34.036Z,27.23
2022-10-30T00:46:23.504Z,25.53
2022-10-30T00:49:04.291Z,25.17
2022-10-30T00:51:33.320Z,27.10
2022-10-30T00:54:02.856Z,26.77
2022-10-30T00:56:30.329Z,28.77
2022-10-30T00:59:01.525Z,29.83
2022-10-30T01:01:32.273Z,30.30
2022-10-30T01:04:02.438Z,26.00
2022-10-30T01:06:31.591Z,28.63
2022-10-30T01:09:00.285Z,26.43
2022-10-30T01:11:27.863Z,29.00
2022-10-30T01:13:58.812Z,25.33
2022-10-30T01:16:31.572Z,27.67
2022-10-30T01:19:17.677Z,33.13
2022-10-30T01:22:02.570Z,28.83
2022-10-30T01:24:55.708Z,23.17
2022-10-30T01:27:47.947Z,28.37
2022-10-30T01:30:45.805Z,28.57
2022-10-30T01:33:34.510Z,29.57
2022-10-30T01:36:08.209Z,24.77
2022-10-30T01:38:52.730Z,24.33
2022-10-30T01:41:19.899Z,26.23
2022-10-30T01:43:50.653Z,25.77
2022-10-30T01:46:39.383Z,27.27
2022-10-30T01:52:17.639Z,21.07
2022-10-30T01:55:02.656Z,27.93
2022-10-30T01:57:45.150Z,26.83
2022-10-30T02:00:15.165Z,27.83
2022-10-30T02:02:42.997Z,27.10
2022-10-30T02:05:14.532Z,28.90
2022-10-30T02:07:41.575Z,29.63
2022-10-30T02:10:11.069Z,32.53
2022-10-30T02:12:38.430Z,24.80
2022-10-30T02:15:05.877Z,28.43
2022-10-30T02:17:32.866Z,27.07
2022-10-30T02:19:59.804Z,24.13
2022-10-30T02:22:27.542Z,26.63
2022-10-30T02:24:54.990Z,25.37
2022-10-30T02:27:21.950Z,25.93
2022-10-30T02:29:49.359Z,25.40
2022-10-30T02:32:16.229Z,28.23
2022-10-30T02:34:44.050Z,28.10
2022-10-30T02:37:11.302Z,28.47
2022-10-30T02:39:41.326Z,26.73
2022-10-30T02:42:08.350Z,25.13
2022-10-30T02:44:35.473Z,23.63
2022-10-30T02:47:02.371Z,24.90
2022-10-30T02:49:29.348Z,26.37
2022-10-30T02:51:56.424Z,24.83
2022-10-30T02:54:23.387Z,29.33
2022-10-30T02:56:50.585Z,24.57
2022-10-30T02:59:17.677Z,27.10
2022-10-30T03:01:44.936Z,26.97
2022-10-30T03:04:11.937Z,29.07
2022-10-30T03:06:38.978Z,25.67
2022-10-30T03:09:05.949Z,25.97
2022-10-30T03:11:34.715Z,27.90
2022-10-30T03:14:01.815Z,29.93
2022-10-30T03:16:29.461Z,25.80
2022-10-30T03:19:15.812Z,25.87
2022-10-30T03:21:43.069Z,27.73
2022-10-30T03:24:10.009Z,28.87
2022-10-30T03:26:37.112Z,34.20
2022-10-30T03:29:04.529Z,25.37
2022-10-30T03:31:32.371Z,25.93
2022-10-30T03:33:59.455Z,22.93
2022-10-30T03:36:27.656Z,29.70
2022-10-30T03:38:54.573Z,28.80
2022-10-30T03:41:21.674Z,30.13
2022-10-30T03:43:48.644Z,26.97
2022-10-30T03:46:15.565Z,24.33
2022-10-30T03:48:42.666Z,26.77
2022-10-30T03:51:09.655Z,27.00
2022-10-30T03:53:36.577Z,28.30
2022-10-30T03:56:04.924Z,26.63
2022-10-30T03:58:31.872Z,30.37
2022-10-30T04:01:03.777Z,31.47
2022-10-30T04:03:30.890Z,27.73
2022-10-30T04:05:57.815Z,27.03
2022-10-30T04:08:24.827Z,28.83
2022-10-30T04:10:52.016Z,30.10
2022-10-30T04:13:20.381Z,26.40
2022-10-30T04:15:54.150Z,29.43
2022-10-30T04:18:25.832Z,25.47
2022-10-30T04:20:52.836Z,25.07
2022-10-30T04:23:21.218Z,28.20
2022-10-30T04:25:48.672Z,29.93
2022-10-30T04:28:15.808Z,28.20
2022-10-30T04:30:43.372Z,32.97
2022-10-30T04:33:12.310Z,29.40
2022-10-30T04:35:40.441Z,30.97
2022-10-30T04:38:10.403Z,28.40
2022-10-30T04:40:39.657Z,26.57
2022-10-30T04:43:07.833Z,27.10
2022-10-30T04:45:35.631Z,30.37
2022-10-30T04:48:07.584Z,28.53
2022-10-30T04:50:35.027Z,28.23
2022-10-30T04:53:04.317Z,30.13
2022-10-30T04:55:32.193Z,26.27
2022-10-30T04:58:00.634Z,26.93
2022-10-30T05:00:28.136Z,31.17
2022-10-30T05:02:55.268Z,26.10
2022-10-30T05:05:22.171Z,27.10
2022-10-30T05:07:49.317Z,28.37
2022-10-30T05:10:17.075Z,25.20
2022-10-30T05:12:45.419Z,29.97
2022-10-30T05:15:13.739Z,29.70
2022-10-30T05:17:41.561Z,28.33
2022-10-30T05:20:10.540Z,26.80
2022-10-30T05:22:39.167Z,22.80
2022-10-30T05:25:06.723Z,30.07
2022-10-30T05:27:33.648Z,30.80
2022-10-30T05:30:00.588Z,28.47
2022-10-30T05:32:27.669Z,26.50
2022-10-30T05:34:54.580Z,27.77
2022-10-30T05:37:21.493Z,28.70
2022-10-30T05:39:48.660Z,27.10
2022-10-30T05:42:15.520Z,28.00
2022-10-30T05:45:02.589Z,28.87
2022-10-30T05:47:29.896Z,31.27
2022-10-30T05:49:57.020Z,30.07
2022-10-30T05:52:23.880Z,25.63
2022-10-30T05:54:50.742Z,30.03
2022-10-30T05:57:17.787Z,24.17
2022-10-30T05:59:44.689Z,26.73
2022-10-30T06:02:12.149Z,25.93
2022-10-30T06:04:39.168Z,25.77
2022-10-30T06:07:10.186Z,28.70
2022-10-30T06:09:37.112Z,27.07
2022-10-30T06:12:04.297Z,23.83
2022-10-30T06:14:31.504Z,26.30
2022-10-30T06:16:58.347Z,26.67
2022-10-30T06:19:25.448Z,25.67
2022-10-30T06:21:52.442Z,23.27
2022-10-30T06:24:19.519Z,24.30
2022-10-30T06:26:46.643Z,23.87
2022-10-30T06:29:13.544Z,25.87
2022-10-30T06:31:40.740Z,22.67
2022-10-30T06:34:07.862Z,23.00
2022-10-30T06:36:34.753Z,21.23
2022-10-30T06:39:01.795Z,22.33
2022-10-30T06:41:30.397Z,21.67
2022-10-30T06:43:57.699Z,21.23
2022-10-30T06:46:27.511Z,24.60
2022-10-30T06:48:58.040Z,22.43
2022-10-30T06:51:25.215Z,20.57
2022-10-30T06:53:52.083Z,19.27
2022-10-30T06:56:19.115Z,20.00
2022-10-30T06:58:47.861Z,20.73
2022-10-30T07:01:15.849Z,21.87
2022-10-30T07:03:43.011Z,19.63
2022-10-30T07:06:09.969Z,21.27
2022-10-30T07:08:36.976Z,21.60
2022-10-30T07:11:04.123Z,21.20
2022-10-30T07:13:31.071Z,27.87
2022-10-30T07:15:59.250Z,23.37
2022-10-30T07:18:27.152Z,24.10
2022-10-30T07:20:56.279Z,24.03
2022-10-30T07:23:23.533Z,21.40
2022-10-30T07:25:50.652Z,24.43
2022-10-30T07:28:17.551Z,24.17
2022-10-30T07:30:44.428Z,26.03
2022-10-30T07:33:11.476Z,21.70
2022-10-30T07:35:38.488Z,25.83
2022-10-30T07:38:07.543Z,24.70
2022-10-30T07:40:34.964Z,23.77
2022-10-30T07:43:03.405Z,22.27
2022-10-30T07:45:31.530Z,29.47
2022-10-30T07:47:58.827Z,20.07
2022-10-30T07:50:26.247Z,20.67
2022-10-30T07:52:54.397Z,23.80
2022-10-30T07:55:21.478Z,20.13
2022-10-30T07:57:48.658Z,20.77
2022-10-30T08:00:17.090Z,19.90
2022-10-30T08:02:44.235Z,20.60
2022-10-30T08:05:11.863Z,25.40
2022-10-30T08:07:39.730Z,21.57
2022-10-30T08:10:08.170Z,19.50
2022-10-30T08:12:38.393Z,21.47
2022-10-30T08:15:06.494Z,26.30
2022-10-30T08:17:33.442Z,23.80
2022-10-30T08:20:00.664Z,19.37
2022-10-30T08:22:27.515Z,23.57
2022-10-30T08:24:54.680Z,20.07
2022-10-30T08:27:21.581Z,23.03
2022-10-30T08:29:48.840Z,19.70
2022-10-30T08:32:15.722Z,22.10
2022-10-30T08:34:43.755Z,17.70
2022-10-30T08:37:11.923Z,18.63
2022-10-30T08:39:38.956Z,24.40
2022-10-30T08:42:06.023Z,16.37
2022-10-30T08:44:33.020Z,20.20
2022-10-30T08:47:00.120Z,18.47
2022-10-30T08:49:36.966Z,19.33
2022-10-30T08:52:08.708Z,19.97
2022-10-30T08:54:35.870Z,19.53
2022-10-30T08:57:03.231Z,20.80
2022-10-30T08:59:30.117Z,17.47
2022-10-30T09:01:57.382Z,21.50
2022-10-30T09:04:24.412Z,17.03
2022-10-30T09:06:51.481Z,18.90
2022-10-30T09:09:19.190Z,18.97
2022-10-30T09:11:49.039Z,17.43
2022-10-30T09:14:15.941Z,18.67
2022-10-30T09:16:43.190Z,17.97
2022-10-30T09:19:14.764Z,24.57
2022-10-30T09:21:44.764Z,19.90
2022-10-30T09:24:17.419Z,20.87
2022-10-30T09:26:44.585Z,23.03
2022-10-30T09:29:11.604Z,18.03
2022-10-30T09:31:38.674Z,16.23
2022-10-30T09:34:05.825Z,18.77
2022-10-30T09:36:33.113Z,21.50
2022-10-30T09:39:02.886Z,17.33
2022-10-30T09:41:51.278Z,17.97
2022-10-30T09:44:40.971Z,16.80
2022-10-30T09:47:12.140Z,15.57
2022-10-30T09:50:03.899Z,19.33
2022-10-30T09:52:40.637Z,14.83
2022-10-30T09:55:33.922Z,25.03
2022-10-30T09:58:22.720Z,15.70
2022-10-30T10:01:12.296Z,18.20
2022-10-30T10:03:55.734Z,17.70
2022-10-30T10:06:26.009Z,17.50
2022-10-30T10:09:14.324Z,18.03
2022-10-30T10:11:46.462Z,20.07
2022-10-30T10:14:20.924Z,17.77
2022-10-30T10:16:52.941Z,16.30
2022-10-30T10:19:53.592Z,15.67
2022-10-30T10:22:24.950Z,13.03
2022-10-30T10:24:54.636Z,14.73
2022-10-30T10:27:43.699Z,11.17
2022-10-30T10:30:21.362Z,13.60
2022-10-30T10:33:07.165Z,10.57
2022-10-30T10:36:11.996Z,13.13
2022-10-30T10:39:04.115Z,13.40
2022-10-30T10:42:16.638Z,10.80
2022-10-30T10:45:04.832Z,11.47
2022-10-30T10:47:34.874Z,9.90
2022-10-30T10:50:34.831Z,11.93
2022-10-30T10:53:05.854Z,11.67
2022-10-30T10:55:36.375Z,12.37
2022-10-30T10:58:43.151Z,9.60
2022-10-30T11:01:16.737Z,11.40
2022-10-30T11:04:02.909Z,9.23
2022-10-30T11:06:36.329Z,10.80
2022-10-30T11:09:37.119Z,10.50
2022-10-30T11:12:04.705Z,9.80
2022-10-30T11:14:31.866Z,10.23
2022-10-30T11:17:11.860Z,11.13
2022-10-30T11:19:51.818Z,12.20
2022-10-30T11:22:36.992Z,9.40
2022-10-30T11:25:28.436Z,11.73
2022-10-30T11:28:03.555Z,8.30
2022-10-30T11:30:31.248Z,9.50
2022-10-30T11:33:32.651Z,8.07
2022-10-30T11:36:15.544Z,9.77
2022-10-30T11:38:43.223Z,7.80
2022-10-30T11:41:11.354Z,8.17
2022-10-30T11:43:40.930Z,10.37
2022-10-30T11:46:11.941Z,12.73
2022-10-30T11:48:44.324Z,8.50
2022-10-30T11:51:13.729Z,8.70
2022-10-30T11:53:49.920Z,13.13
2022-10-30T11:56:21.223Z,8.93
2022-10-30T11:58:55.550Z,6.57
2022-10-30T12:01:28.337Z,10.03
2022-10-30T12:03:56.555Z,7.23
2022-10-30T12:06:23.557Z,6.00
2022-10-30T12:09:23.328Z,5.77
2022-10-30T12:11:54.412Z,6.90
2022-10-30T12:14:23.632Z,7.37
2022-10-30T12:16:52.745Z,8.73
2022-10-30T12:19:22.769Z,8.40
2022-10-30T12:21:53.545Z,10.00
2022-10-30T12:24:36.224Z,6.17
2022-10-30T12:27:10.396Z,10.10
2022-10-30T12:30:13.516Z,13.20
2022-10-30T12:33:04.131Z,6.40
2022-10-30T12:35:46.654Z,8.20
2022-10-30T12:38:27.640Z,8.53
2022-10-30T12:41:10.189Z,8.73
2022-10-30T12:43:37.130Z,9.47
2022-10-30T12:46:19.820Z,9.60
2022-10-30T12:48:56.385Z,6.60
2022-10-30T12:51:55.712Z,6.67
2022-10-30T12:54:32.441Z,9.63
2022-10-30T12:57:27.985Z,6.70
2022-10-30T13:00:03.133Z,7.20
2022-10-30T13:02:50.538Z,7.47
2022-10-30T13:05:34.005Z,8.33
2022-10-30T13:08:35.075Z,6.93
2022-10-30T13:11:12.459Z,5.90
2022-10-30T13:13:43.340Z,7.03
2022-10-30T13:16:19.139Z,6.00
2022-10-30T13:18:46.197Z,9.83
2022-10-30T13:21:13.032Z,7.90
2022-10-30T13:23:57.021Z,6.23
2022-10-30T13:26:57.026Z,6.80
2022-10-30T13:29:33.868Z,8.87
2022-10-30T13:32:09.519Z,7.80
2022-10-30T13:34:39.124Z,5.23
2022-10-30T13:37:16.159Z,6.40
2022-10-30T13:40:20.869Z,6.70
2022-10-30T13:43:28.382Z,6.47
2022-10-30T13:49:38.532Z,6.90
2022-10-30T13:52:16.608Z,5.57
2022-10-30T13:55:07.007Z,5.57
2022-10-30T13:57:45.990Z,6.00
2022-10-30T14:00:32.618Z,5.27
2022-10-30T14:03:43.066Z,6.53
2022-10-30T14:06:44.373Z,7.47
2022-10-30T14:09:49.237Z,8.20
2022-10-30T14:12:47.113Z,6.40
2022-10-30T14:15:27.599Z,5.53
2022-10-30T14:18:12.851Z,5.07
2022-10-30T14:20:48.282Z,5.83
2022-10-30T14:23:37.596Z,5.70
2022-10-30T14:26:04.611Z,4.87
2022-10-30T14:28:32.755Z,6.37
2022-10-30T14:31:18.266Z,6.83
2022-10-30T14:33:46.137Z,4.80
2022-10-30T14:36:46.443Z,8.13
2022-10-30T14:39:19.060Z,4.53
2022-10-30T14:42:32.425Z,4.60
2022-10-30T14:45:09.211Z,5.00
2022-10-30T14:47:59.823Z,5.30
2022-10-30T14:50:26.863Z,4.67
2022-10-30T14:53:21.216Z,6.00
2022-10-30T14:56:09.836Z,7.50
2022-10-30T14:58:38.001Z,9.80
2022-10-30T15:01:23.529Z,6.33
2022-10-30T15:04:02.859Z,7.13
2022-10-30T15:06:57.317Z,5.13
2022-10-30T15:09:48.448Z,5.30
2022-10-30T15:12:40.294Z,5.43
2022-10-30T15:15:22.390Z,7.13
2022-10-30T15:18:15.879Z,7.37
2022-10-30T15:20:44.369Z,9.03
2022-10-30T15:23:20.368Z,9.70
2022-10-30T15:25:50.978Z,7.03
2022-10-30T15:28:22.239Z,10.47
2022-10-30T15:31:03.364Z,7.73
2022-10-30T15:33:33.885Z,7.80
2022-10-30T15:36:01.781Z,8.80
2022-10-30T15:38:28.901Z,7.67
2022-10-30T15:41:01.842Z,8.33
2022-10-30T15:43:33.368Z,10.67
2022-10-30T15:46:19.338Z,10.13
2022-10-30T15:48:47.373Z,10.83
2022-10-30T15:51:18.123Z,10.17
2022-10-30T15:53:55.484Z,7.67
2022-10-30T15:56:28.033Z,8.50
2022-10-30T15:59:01.741Z,8.27
2022-10-30T16:01:44.502Z,8.33
2022-10-30T16:04:20.528Z,11.53
2022-10-30T16:06:53.731Z,15.70
2022-10-30T16:09:21.688Z,10.93
2022-10-30T16:11:49.996Z,10.27
2022-10-30T16:14:23.079Z,10.83
2022-10-30T16:16:51.070Z,10.87
2022-10-30T16:19:28.926Z,14.17
2022-10-30T16:21:58.563Z,10.27
2022-10-30T16:24:32.451Z,8.07
2022-10-30T16:27:20.292Z,11.73
2022-10-30T16:30:03.790Z,9.53
2022-10-30T16:32:36.008Z,10.90
2022-10-30T16:35:04.501Z,9.90
2022-10-30T16:37:37.031Z,9.33
2022-10-30T16:40:17.364Z,9.07
2022-10-30T16:42:53.207Z,11.23
2022-10-30T16:45:23.090Z,14.90
2022-10-30T16:51:07.205Z,12.53
2022-10-30T16:53:34.304Z,13.47
2022-10-30T16:56:01.657Z,14.30
2022-10-30T16:58:31.508Z,12.50
2022-10-30T17:01:05.069Z,9.03
2022-10-30T17:03:38.239Z,9.97
2022-10-30T17:06:25.618Z,11.20
2022-10-30T17:08:57.297Z,13.83
2022-10-30T17:11:46.177Z,7.00
2022-10-30T17:14:21.538Z,12.13
2022-10-30T17:16:53.069Z,10.03
2022-10-30T17:19:32.388Z,9.93
2022-10-30T17:22:02.650Z,13.53
2022-10-30T17:24:30.496Z,13.70
2022-10-30T17:27:23.601Z,20.93
2022-10-30T17:29:50.882Z,14.93
2022-10-30T17:32:22.264Z,14.43
2022-10-30T17:35:01.468Z,19.73
2022-10-30T17:37:29.100Z,13.77
2022-10-30T17:39:56.039Z,11.93
2022-10-30T17:42:23.372Z,7.70
2022-10-30T17:44:50.408Z,13.00
2022-10-30T17:47:19.927Z,14.57
2022-10-30T17:49:49.552Z,16.63
2022-10-30T17:52:20.612Z,16.73
2022-10-30T17:54:47.590Z,14.73
2022-10-30T17:57:16.201Z,11.73
2022-10-30T17:59:43.698Z,18.53
2022-10-30T18:02:20.552Z,19.90
2022-10-30T18:04:49.980Z,17.63
2022-10-30T18:07:17.519Z,18.27
2022-10-30T18:09:44.471Z,19.13
2022-10-30T18:12:15.068Z,19.13
2022-10-30T18:14:43.212Z,18.43
2022-10-30T18:17:11.006Z,19.53
2022-10-30T18:19:38.991Z,17.10
2022-10-30T18:22:09.314Z,21.80
2022-10-30T18:24:36.372Z,23.53
2022-10-30T18:27:03.304Z,20.40
2022-10-30T18:29:30.405Z,23.53
2022-10-30T18:31:57.331Z,19.60
2022-10-30T18:34:24.217Z,21.53
2022-10-30T18:36:57.287Z,17.03
2022-10-30T18:39:24.230Z,25.03
2022-10-30T18:41:51.459Z,23.00
2022-10-30T18:44:19.124Z,34.67
2022-10-30T18:46:46.564Z,24.97
2022-10-30T18:49:13.872Z,27.87
2022-10-30T18:51:41.034Z,23.73
2022-10-30T18:54:15.540Z,22.13
2022-10-30T18:56:43.108Z,25.60
2022-10-30T18:59:10.045Z,22.87
2022-10-30T19:01:37.715Z,18.90
2022-10-30T19:04:09.497Z,18.20
2022-10-30T19:06:38.517Z,20.83
2022-10-30T19:09:05.519Z,20.20
2022-10-30T19:11:33.105Z,21.83
2022-10-30T19:14:00.183Z,18.20
2022-10-30T19:16:28.459Z,21.67
2022-10-30T19:18:55.558Z,21.30
2022-10-30T19:21:25.499Z,19.13
2022-10-30T19:23:53.882Z,16.93
2022-10-30T19:26:21.009Z,19.90
2022-10-30T19:28:47.932Z,18.10
2022-10-30T19:31:16.957Z,20.63
2022-10-30T19:33:44.534Z,19.90
2022-10-30T19:36:47.233Z,21.40
2022-10-30T19:39:17.455Z,18.53
2022-10-30T19:41:45.438Z,18.07
2022-10-30T19:44:12.415Z,20.50
2022-10-30T19:46:39.311Z,21.67
2022-10-30T19:49:18.461Z,20.70
2022-10-30T19:51:46.293Z,18.07
2022-10-30T19:54:14.300Z,19.27
2022-10-30T19:56:43.455Z,20.00
2022-10-30T19:59:13.011Z,21.37
2022-10-30T20:01:41.456Z,26.03
2022-10-30T20:04:08.868Z,20.17
2022-10-30T20:06:35.884Z,19.30
2022-10-30T20:09:05.479Z,21.37
2022-10-30T20:11:41.328Z,22.17
2022-10-30T20:14:08.761Z,26.10
2022-10-30T20:16:35.835Z,25.10
2022-10-30T20:19:14.044Z,19.30
2022-10-30T20:21:41.080Z,21.73
2022-10-30T20:24:09.152Z,20.90
2022-10-30T20:26:38.328Z,20.07
2022-10-30T20:29:05.507Z,19.70
2022-10-30T20:31:34.348Z,23.43
2022-10-30T20:34:02.357Z,18.93
2022-10-30T20:36:29.217Z,19.53
2022-10-30T20:38:56.102Z,22.97
2022-10-30T20:41:25.769Z,26.43
2022-10-30T20:43:53.499Z,26.97
2022-10-30T20:46:21.296Z,29.10
2022-10-30T20:48:56.618Z,27.20
2022-10-30T20:51:23.941Z,27.77
2022-10-30T20:53:51.078Z,30.97
2022-10-30T20:56:17.992Z,29.80
2022-10-30T20:58:44.862Z,30.70
2022-10-30T21:01:13.627Z,32.00
2022-10-30T21:03:40.699Z,26.50
2022-10-30T21:06:09.943Z,26.53
2022-10-30T21:08:37.569Z,32.23
2022-10-30T21:11:06.270Z,31.67
2022-10-30T21:13:34.488Z,30.83
2022-10-30T21:16:04.643Z,34.60
2022-10-30T21:18:32.438Z,29.33
2022-10-30T21:21:04.465Z,38.20
2022-10-30T21:23:31.907Z,37.63
2022-10-30T21:26:04.102Z,37.97
2022-10-30T21:28:31.131Z,34.63
2022-10-30T21:31:06.505Z,35.17
2022-10-30T21:33:35.636Z,36.47
2022-10-30T21:36:10.913Z,37.53
2022-10-30T21:38:42.568Z,41.17
2022-10-30T21:41:30.172Z,42.30
2022-10-30T21:43:58.573Z,38.60
2022-10-30T21:46:28.826Z,38.20
2022-10-30T21:48:56.480Z,40.80
2022-10-30T21:51:25.532Z,43.37
2022-10-30T21:53:54.315Z,44.30
2022-10-30T21:56:23.733Z,44.50
2022-10-30T21:58:51.057Z,47.77
2022-10-30T22:01:23.841Z,43.67
2022-10-30T22:03:51.098Z,47.27
2022-10-30T22:06:20.700Z,46.77
2022-10-30T22:08:49.629Z,50.57
2022-10-30T22:11:17.535Z,46.13
2022-10-30T22:13:44.752Z,48.70
2022-10-30T22:16:14.238Z,46.30
2022-10-30T22:18:41.691Z,41.23
2022-10-30T22:21:10.936Z,43.50
2022-10-30T22:23:39.427Z,45.77
2022-10-30T22:26:09.097Z,44.07
2022-10-30T22:28:36.280Z,61.33
2022-10-30T22:31:09.605Z,57.27
2022-10-30T22:33:37.029Z,54.60
2022-10-30T22:36:12.718Z,78.07
2022-10-30T22:38:39.676Z,67.40
2022-10-30T22:41:30.016Z,69.63
2022-10-30T22:44:00.130Z,60.70
2022-10-30T22:46:28.743Z,53.13
2022-10-30T22:48:59.560Z,46.80
2022-10-30T22:51:26.899Z,47.87
2022-10-30T22:54:01.754Z,51.40
2022-10-30T22:56:32.220Z,49.50
2022-10-30T22:59:04.836Z,48.97
2022-10-30T23:01:33.964Z,50.63
2022-10-30T23:04:02.912Z,54.33
2022-10-30T23:06:30.953Z,52.77
2022-10-30T23:08:59.795Z,49.13
2022-10-30T23:11:28.358Z,50.83
2022-10-30T23:13:55.860Z,51.27
2022-10-30T23:16:25.585Z,49.57
2022-10-30T23:18:55.508Z,53.40
2022-10-30T23:21:24.570Z,52.57
2022-10-30T23:23:52.594Z,54.00
2022-10-30T23:26:25.292Z,50.83
2022-10-30T23:28:54.137Z,55.10
2022-10-30T23:31:24.076Z,57.90
2022-10-30T23:33:53.033Z,49.50
2022-10-30T23:36:20.913Z,50.33
2022-10-30T23:38:52.916Z,55.60
2022-10-30T23:41:21.108Z,50.67
2022-10-30T23:43:48.551Z,54.37
2022-10-30T23:46:15.390Z,48.87
2022-10-30T23:48:42.459Z,55.97
2022-10-30T23:51:09.988Z,52.57
2022-10-30T23:53:37.053Z,53.83
2022-10-30T23:56:04.852Z,51.83
2022-10-30T23:58:32.404Z,48.93
